RYR35G LIRF-EDDB
Flight info
| Callsign | RYR35G |
|---|---|
| Flight time | 2h 6m |
| Altitude | 35000 |
| Route | SOSIV5A SOVAN DCT AMTEL DCT SUMIR DCT BRENO DCT ALUTU DCT TIVDA DCT ETVIS DCT NAVEK DCT GAVLI T203 ATGUP ATGUP1R |
| Aircraft | B738/M-SDE2E3FGHIRWXY/LB1 |
Departure
| Time | 2026-02-19 11:50 |
|---|---|
| Airport | Rome–Fiumicino Leonardo da Vinci International Airport (LIRF) |
Arrival
| Time | 2026-02-19 13:56 |
|---|---|
| Airport | Berlin Brandenburg Airport (EDDB) |
| Time | Latitude | Longitude | Altitude | Speed | Heading |
|---|---|---|---|---|---|
| 2026-02-19 11:06 | 41.79593 | 12.25762 | 15 ft | 0 kts | 114° |
| 2026-02-19 11:39 | 41.79593 | 12.25760 | 15 ft | 0 kts | 114° |
| 2026-02-19 11:39 | 41.79595 | 12.25755 | 16 ft | 1 kts | 114° |
| 2026-02-19 11:39 | 41.79597 | 12.25749 | 15 ft | 1 kts | 116° |
| 2026-02-19 11:39 | 41.79600 | 12.25742 | 15 ft | 1 kts | 126° |
| 2026-02-19 11:40 | 41.79603 | 12.25737 | 15 ft | 1 kts | 148° |
| 2026-02-19 11:40 | 41.79597 | 12.25750 | 15 ft | 2 kts | 119° |
| 2026-02-19 11:40 | 41.79600 | 12.25736 | 15 ft | 2 kts | 83° |
| 2026-02-19 11:41 | 41.79593 | 12.25717 | 17 ft | 2 kts | 36° |
| 2026-02-19 11:41 | 41.79591 | 12.25715 | 17 ft | 0 kts | 28° |
| 2026-02-19 11:44 | 41.79607 | 12.25722 | 16 ft | 6 kts | 19° |
| 2026-02-19 11:44 | 41.79684 | 12.25759 | 17 ft | 17 kts | 21° |
| 2026-02-19 11:45 | 41.79791 | 12.25822 | 17 ft | 8 kts | 24° |
| 2026-02-19 11:45 | 41.79869 | 12.25830 | 17 ft | 15 kts | 0° |
| 2026-02-19 11:45 | 41.79984 | 12.25890 | 17 ft | 21 kts | 24° |
| 2026-02-19 11:45 | 41.80131 | 12.25979 | 18 ft | 15 kts | 24° |
| 2026-02-19 11:46 | 41.80233 | 12.26042 | 15 ft | 20 kts | 25° |
| 2026-02-19 11:46 | 41.80383 | 12.26137 | 14 ft | 22 kts | 26° |
| 2026-02-19 11:46 | 41.80492 | 12.26189 | 13 ft | 16 kts | 30° |
| 2026-02-19 11:46 | 41.80555 | 12.26336 | 16 ft | 21 kts | 69° |
| 2026-02-19 11:47 | 41.80611 | 12.26542 | 15 ft | 27 kts | 70° |
| 2026-02-19 11:47 | 41.80684 | 12.26803 | 12 ft | 33 kts | 69° |
| 2026-02-19 11:47 | 41.80755 | 12.27021 | 9 ft | 18 kts | 41° |
| 2026-02-19 11:47 | 41.80860 | 12.27013 | 10 ft | 0 kts | 339° |
| 2026-02-19 11:48 | 41.80861 | 12.27012 | 10 ft | 0 kts | 339° |
| 2026-02-19 11:49 | 41.80888 | 12.26998 | 10 ft | 7 kts | 339° |
| 2026-02-19 11:49 | 41.80945 | 12.26948 | 10 ft | 12 kts | 298° |
| 2026-02-19 11:49 | 41.80940 | 12.26872 | 11 ft | 0 kts | 253° |
| 2026-02-19 11:50 | 41.80920 | 12.26797 | 12 ft | 40 kts | 250° |
| 2026-02-19 11:50 | 41.80718 | 12.26080 | 21 ft | 122 kts | 250° |
| 2026-02-19 11:50 | 41.80370 | 12.24711 | 206 ft | 176 kts | 247° |
| 2026-02-19 11:50 | 41.80044 | 12.23092 | 1219 ft | 174 kts | 250° |
| 2026-02-19 11:51 | 41.79690 | 12.21672 | 2712 ft | 148 kts | 248° |
| 2026-02-19 11:51 | 41.79233 | 12.20451 | 3511 ft | 152 kts | 233° |
| 2026-02-19 11:51 | 41.78919 | 12.18971 | 3773 ft | 187 kts | 275° |
| 2026-02-19 11:51 | 41.79660 | 12.17422 | 4015 ft | 212 kts | 310° |
| 2026-02-19 11:52 | 41.80725 | 12.16022 | 4496 ft | 215 kts | 305° |
| 2026-02-19 11:52 | 41.82686 | 12.12980 | 5589 ft | 217 kts | 301° |
| 2026-02-19 11:52 | 41.83646 | 12.11405 | 6160 ft | 219 kts | 302° |
| 2026-02-19 11:53 | 41.84874 | 12.10127 | 6619 ft | 238 kts | 332° |
| 2026-02-19 11:53 | 41.86551 | 12.09470 | 6814 ft | 261 kts | 339° |
| 2026-02-19 11:53 | 41.88348 | 12.08832 | 7163 ft | 271 kts | 339° |
| 2026-02-19 11:53 | 41.90180 | 12.08171 | 7658 ft | 274 kts | 339° |
| 2026-02-19 11:54 | 41.92027 | 12.07493 | 8187 ft | 276 kts | 338° |
| 2026-02-19 11:54 | 41.93890 | 12.06802 | 8701 ft | 280 kts | 338° |
| 2026-02-19 11:54 | 41.95783 | 12.06106 | 9024 ft | 296 kts | 341° |
| 2026-02-19 11:55 | 42.00100 | 12.05585 | 9929 ft | 329 kts | 352° |
| 2026-02-19 11:55 | 42.02463 | 12.05419 | 10141 ft | 350 kts | 352° |
| 2026-02-19 11:55 | 42.04932 | 12.05209 | 10642 ft | 360 kts | 351° |
| 2026-02-19 11:55 | 42.07455 | 12.04973 | 11300 ft | 365 kts | 351° |
| 2026-02-19 11:56 | 42.09994 | 12.04729 | 12072 ft | 367 kts | 351° |
| 2026-02-19 11:56 | 42.15136 | 12.04225 | 13581 ft | 375 kts | 351° |
| 2026-02-19 11:56 | 42.17755 | 12.03967 | 14273 ft | 379 kts | 350° |
| 2026-02-19 11:57 | 42.20378 | 12.03588 | 15090 ft | 380 kts | 346° |
| 2026-02-19 11:57 | 42.23000 | 12.03025 | 15797 ft | 383 kts | 344° |
| 2026-02-19 11:57 | 42.25635 | 12.02396 | 16498 ft | 386 kts | 343° |
| 2026-02-19 11:57 | 42.28294 | 12.01752 | 17177 ft | 390 kts | 343° |
| 2026-02-19 11:58 | 42.30986 | 12.01109 | 17861 ft | 395 kts | 343° |
| 2026-02-19 11:58 | 42.33706 | 12.00472 | 18466 ft | 399 kts | 343° |
| 2026-02-19 11:58 | 42.36461 | 11.99837 | 19015 ft | 405 kts | 343° |
| 2026-02-19 11:58 | 42.39255 | 11.99200 | 19587 ft | 409 kts | 343° |
| 2026-02-19 11:59 | 42.42083 | 11.98559 | 20075 ft | 416 kts | 343° |
| 2026-02-19 11:59 | 42.44953 | 11.97910 | 20598 ft | 420 kts | 343° |
| 2026-02-19 11:59 | 42.47852 | 11.97256 | 21136 ft | 425 kts | 342° |
| 2026-02-19 11:59 | 42.50784 | 11.96594 | 21671 ft | 429 kts | 342° |
| 2026-02-19 12:00 | 42.53740 | 11.95925 | 22159 ft | 434 kts | 342° |
| 2026-02-19 12:00 | 42.59751 | 11.94563 | 23170 ft | 442 kts | 341° |
| 2026-02-19 12:00 | 42.62795 | 11.93872 | 23596 ft | 446 kts | 342° |
| 2026-02-19 12:01 | 42.65864 | 11.93176 | 23975 ft | 448 kts | 341° |
| 2026-02-19 12:01 | 42.68948 | 11.92477 | 24364 ft | 450 kts | 341° |
| 2026-02-19 12:01 | 42.72007 | 11.91782 | 24734 ft | 452 kts | 341° |
| 2026-02-19 12:01 | 42.75119 | 11.91073 | 25056 ft | 455 kts | 341° |
| 2026-02-19 12:02 | 42.78247 | 11.90366 | 25411 ft | 457 kts | 341° |
| 2026-02-19 12:02 | 42.81383 | 11.89621 | 25806 ft | 456 kts | 338° |
| 2026-02-19 12:02 | 42.84410 | 11.88435 | 26066 ft | 449 kts | 328° |
| 2026-02-19 12:02 | 42.87195 | 11.86640 | 26407 ft | 439 kts | 320° |
| 2026-02-19 12:03 | 42.89873 | 11.84642 | 26858 ft | 439 kts | 320° |
| 2026-02-19 12:03 | 42.92548 | 11.82626 | 27264 ft | 440 kts | 320° |
| 2026-02-19 12:03 | 42.95238 | 11.80607 | 27602 ft | 442 kts | 320° |
| 2026-02-19 12:03 | 42.97949 | 11.78591 | 27949 ft | 445 kts | 320° |
| 2026-02-19 12:04 | 43.00675 | 11.76580 | 28304 ft | 447 kts | 320° |
| 2026-02-19 12:04 | 43.06191 | 11.72528 | 29102 ft | 453 kts | 320° |
| 2026-02-19 12:04 | 43.08973 | 11.70484 | 29456 ft | 455 kts | 320° |
| 2026-02-19 12:05 | 43.11766 | 11.68431 | 29792 ft | 457 kts | 320° |
| 2026-02-19 12:05 | 43.14575 | 11.66362 | 30071 ft | 460 kts | 320° |
| 2026-02-19 12:05 | 43.17413 | 11.64265 | 30203 ft | 466 kts | 321° |
| 2026-02-19 12:05 | 43.20350 | 11.62296 | 30416 ft | 478 kts | 328° |
| 2026-02-19 12:06 | 43.23561 | 11.60923 | 30727 ft | 489 kts | 338° |
| 2026-02-19 12:06 | 43.26965 | 11.60227 | 31100 ft | 499 kts | 347° |
| 2026-02-19 12:06 | 43.30427 | 11.59934 | 31472 ft | 498 kts | 349° |
| 2026-02-19 12:06 | 43.33884 | 11.59725 | 31815 ft | 497 kts | 349° |
| 2026-02-19 12:07 | 43.37344 | 11.59535 | 32105 ft | 497 kts | 349° |
| 2026-02-19 12:07 | 43.40793 | 11.59332 | 32384 ft | 496 kts | 349° |
| 2026-02-19 12:07 | 43.44232 | 11.59108 | 32744 ft | 494 kts | 349° |
| 2026-02-19 12:07 | 43.47649 | 11.58866 | 33193 ft | 489 kts | 349° |
| 2026-02-19 12:08 | 43.51032 | 11.58613 | 33646 ft | 484 kts | 348° |
| 2026-02-19 12:08 | 43.57754 | 11.58081 | 33871 ft | 487 kts | 348° |
| 2026-02-19 12:09 | 43.64527 | 11.57534 | 33874 ft | 486 kts | 349° |
| 2026-02-19 12:09 | 43.71205 | 11.57011 | 33869 ft | 478 kts | 349° |
| 2026-02-19 12:10 | 43.77859 | 11.56481 | 33862 ft | 480 kts | 349° |
| 2026-02-19 12:10 | 43.84538 | 11.55947 | 33838 ft | 481 kts | 349° |
| 2026-02-19 12:10 | 43.87875 | 11.55681 | 34087 ft | 479 kts | 349° |
| 2026-02-19 12:11 | 43.91142 | 11.55425 | 34484 ft | 474 kts | 349° |
| 2026-02-19 12:11 | 43.94472 | 11.55164 | 34619 ft | 473 kts | 349° |
| 2026-02-19 12:11 | 43.97764 | 11.54901 | 34608 ft | 474 kts | 349° |
| 2026-02-19 12:12 | 44.04325 | 11.54373 | 34612 ft | 476 kts | 350° |
| 2026-02-19 12:12 | 44.14235 | 11.53580 | 34592 ft | 476 kts | 350° |
| 2026-02-19 12:13 | 44.20842 | 11.53049 | 34590 ft | 475 kts | 350° |
| 2026-02-19 12:13 | 44.27458 | 11.52516 | 34573 ft | 476 kts | 350° |
| 2026-02-19 12:14 | 44.34083 | 11.51982 | 34586 ft | 477 kts | 350° |
| 2026-02-19 12:14 | 44.40717 | 11.51446 | 34592 ft | 477 kts | 350° |
| 2026-02-19 12:15 | 44.47357 | 11.50908 | 34605 ft | 478 kts | 350° |
| 2026-02-19 12:15 | 44.54002 | 11.50369 | 34603 ft | 479 kts | 350° |
| 2026-02-19 12:16 | 44.63993 | 11.49556 | 34606 ft | 480 kts | 350° |
| 2026-02-19 12:17 | 44.70661 | 11.49011 | 34599 ft | 480 kts | 350° |
| 2026-02-19 12:17 | 44.77342 | 11.48465 | 34579 ft | 481 kts | 350° |
| 2026-02-19 12:18 | 44.84022 | 11.47917 | 34577 ft | 481 kts | 350° |
| 2026-02-19 12:18 | 44.90715 | 11.47366 | 34572 ft | 482 kts | 351° |
| 2026-02-19 12:19 | 44.97414 | 11.46815 | 34558 ft | 482 kts | 351° |
| 2026-02-19 12:19 | 45.04099 | 11.46264 | 34564 ft | 481 kts | 351° |
| 2026-02-19 12:20 | 45.10736 | 11.45715 | 34553 ft | 481 kts | 351° |
| 2026-02-19 12:20 | 45.20784 | 11.44880 | 34570 ft | 480 kts | 351° |
| 2026-02-19 12:21 | 45.27404 | 11.44329 | 34557 ft | 479 kts | 351° |
| 2026-02-19 12:21 | 45.34053 | 11.43774 | 34564 ft | 478 kts | 351° |
| 2026-02-19 12:22 | 45.40691 | 11.43219 | 34573 ft | 478 kts | 351° |
| 2026-02-19 12:22 | 45.47327 | 11.42662 | 34583 ft | 478 kts | 351° |
| 2026-02-19 12:23 | 45.53974 | 11.42102 | 34580 ft | 479 kts | 351° |
| 2026-02-19 12:23 | 45.60635 | 11.41541 | 34594 ft | 479 kts | 352° |
| 2026-02-19 12:24 | 45.70752 | 11.40681 | 34598 ft | 492 kts | 352° |
| 2026-02-19 12:25 | 45.77590 | 11.40104 | 34597 ft | 493 kts | 352° |
| 2026-02-19 12:25 | 45.84441 | 11.39525 | 34586 ft | 493 kts | 352° |
| 2026-02-19 12:26 | 45.91280 | 11.38944 | 34597 ft | 492 kts | 352° |
| 2026-02-19 12:26 | 45.98113 | 11.38360 | 34603 ft | 491 kts | 352° |
| 2026-02-19 12:27 | 46.04925 | 11.37777 | 34616 ft | 490 kts | 352° |
| 2026-02-19 12:27 | 46.11720 | 11.37194 | 34615 ft | 489 kts | 352° |
| 2026-02-19 12:28 | 46.18517 | 11.36609 | 34618 ft | 489 kts | 352° |
| 2026-02-19 12:28 | 46.27556 | 11.35908 | 34620 ft | 490 kts | 355° |
| 2026-02-19 12:29 | 46.34379 | 11.36004 | 34619 ft | 491 kts | 358° |
| 2026-02-19 12:29 | 46.41217 | 11.36276 | 34704 ft | 491 kts | 357° |
| 2026-02-19 12:30 | 46.48073 | 11.36490 | 34949 ft | 493 kts | 357° |
| 2026-02-19 12:30 | 46.51495 | 11.36577 | 35288 ft | 490 kts | 357° |
| 2026-02-19 12:30 | 46.54894 | 11.36658 | 35584 ft | 488 kts | 356° |
| 2026-02-19 12:31 | 46.58282 | 11.36741 | 35824 ft | 486 kts | 357° |
| 2026-02-19 12:31 | 46.61658 | 11.36819 | 36104 ft | 483 kts | 357° |
| 2026-02-19 12:31 | 46.65022 | 11.36893 | 36316 ft | 483 kts | 356° |
| 2026-02-19 12:31 | 46.68381 | 11.36968 | 36477 ft | 484 kts | 356° |
| 2026-02-19 12:32 | 46.71752 | 11.37044 | 36655 ft | 484 kts | 356° |
| 2026-02-19 12:32 | 46.78516 | 11.37202 | 36639 ft | 485 kts | 356° |
| 2026-02-19 12:33 | 46.85237 | 11.37364 | 36646 ft | 482 kts | 356° |
| 2026-02-19 12:33 | 46.91935 | 11.37522 | 36639 ft | 480 kts | 356° |
| 2026-02-19 12:34 | 46.98602 | 11.38035 | 36649 ft | 483 kts | 6° |
| 2026-02-19 12:34 | 47.05096 | 11.40731 | 36642 ft | 486 kts | 15° |
| 2026-02-19 12:35 | 47.11521 | 11.43862 | 36659 ft | 486 kts | 15° |
| 2026-02-19 12:35 | 47.17953 | 11.46954 | 36675 ft | 488 kts | 15° |
| 2026-02-19 12:36 | 47.24438 | 11.50013 | 36676 ft | 490 kts | 14° |
| 2026-02-19 12:36 | 47.34171 | 11.54581 | 36667 ft | 493 kts | 14° |
| 2026-02-19 12:37 | 47.40709 | 11.57662 | 36666 ft | 494 kts | 15° |
| 2026-02-19 12:37 | 47.47257 | 11.60758 | 36669 ft | 495 kts | 15° |
| 2026-02-19 12:38 | 47.53814 | 11.63865 | 36655 ft | 494 kts | 14° |
| 2026-02-19 12:38 | 47.60348 | 11.66962 | 36663 ft | 492 kts | 15° |
| 2026-02-19 12:39 | 47.66870 | 11.70080 | 36675 ft | 491 kts | 15° |
| 2026-02-19 12:39 | 47.73357 | 11.73184 | 36684 ft | 489 kts | 15° |
| 2026-02-19 12:40 | 47.83050 | 11.77832 | 36681 ft | 487 kts | 15° |
| 2026-02-19 12:41 | 47.89485 | 11.80927 | 36691 ft | 485 kts | 15° |
| 2026-02-19 12:41 | 47.95902 | 11.84022 | 36695 ft | 484 kts | 15° |
| 2026-02-19 12:42 | 48.02307 | 11.87119 | 36708 ft | 483 kts | 15° |
| 2026-02-19 12:42 | 48.08696 | 11.90216 | 36699 ft | 483 kts | 15° |
| 2026-02-19 12:43 | 48.15092 | 11.93325 | 36698 ft | 482 kts | 15° |
| 2026-02-19 12:43 | 48.21462 | 11.96430 | 36703 ft | 481 kts | 15° |
| 2026-02-19 12:44 | 48.27826 | 11.99539 | 36696 ft | 481 kts | 15° |
| 2026-02-19 12:44 | 48.37327 | 12.04197 | 36699 ft | 481 kts | 15° |
| 2026-02-19 12:45 | 48.43694 | 12.07330 | 36702 ft | 481 kts | 15° |
| 2026-02-19 12:45 | 48.50060 | 12.10470 | 36710 ft | 482 kts | 15° |
| 2026-02-19 12:46 | 48.56364 | 12.13966 | 36717 ft | 483 kts | 18° |
| 2026-02-19 12:46 | 48.62613 | 12.17698 | 36727 ft | 483 kts | 18° |
| 2026-02-19 12:47 | 48.68871 | 12.21409 | 36737 ft | 483 kts | 18° |
| 2026-02-19 12:47 | 48.75130 | 12.25075 | 36724 ft | 482 kts | 18° |
| 2026-02-19 12:48 | 48.84494 | 12.30550 | 36730 ft | 480 kts | 18° |
| 2026-02-19 12:49 | 48.90724 | 12.34206 | 36739 ft | 479 kts | 18° |
| 2026-02-19 12:49 | 48.96927 | 12.37857 | 36739 ft | 477 kts | 18° |
| 2026-02-19 12:50 | 49.03118 | 12.41512 | 36726 ft | 476 kts | 18° |
| 2026-02-19 12:50 | 49.09251 | 12.45144 | 36759 ft | 475 kts | 18° |
| 2026-02-19 12:51 | 49.15421 | 12.48804 | 36742 ft | 475 kts | 18° |
| 2026-02-19 12:51 | 49.21573 | 12.52464 | 36746 ft | 475 kts | 18° |
| 2026-02-19 12:52 | 49.27725 | 12.56135 | 36750 ft | 474 kts | 18° |
| 2026-02-19 12:52 | 49.36942 | 12.61654 | 36770 ft | 473 kts | 18° |
| 2026-02-19 12:53 | 49.43074 | 12.65338 | 36758 ft | 473 kts | 18° |
| 2026-02-19 12:53 | 49.49075 | 12.69521 | 36767 ft | 474 kts | 23° |
| 2026-02-19 12:54 | 49.54988 | 12.74022 | 36781 ft | 473 kts | 22° |
| 2026-02-19 12:54 | 49.60907 | 12.78433 | 36772 ft | 472 kts | 22° |
| 2026-02-19 12:55 | 49.66956 | 12.82185 | 36773 ft | 465 kts | 9° |
| 2026-02-19 12:55 | 49.73287 | 12.83734 | 36795 ft | 460 kts | 3° |
| 2026-02-19 12:56 | 49.82793 | 12.85766 | 36808 ft | 460 kts | 4° |
| 2026-02-19 12:57 | 49.89129 | 12.87208 | 36811 ft | 460 kts | 4° |
| 2026-02-19 12:57 | 49.95440 | 12.88675 | 36814 ft | 456 kts | 4° |
| 2026-02-19 12:58 | 50.01672 | 12.90130 | 36781 ft | 451 kts | 4° |
| 2026-02-19 12:58 | 50.07857 | 12.91571 | 36776 ft | 448 kts | 4° |
| 2026-02-19 12:59 | 50.14015 | 12.93009 | 36777 ft | 447 kts | 4° |
| 2026-02-19 12:59 | 50.20156 | 12.94447 | 36780 ft | 446 kts | 4° |
| 2026-02-19 13:00 | 50.26305 | 12.95897 | 36771 ft | 447 kts | 5° |
| 2026-02-19 13:00 | 50.32256 | 12.99005 | 36793 ft | 457 kts | 23° |
| 2026-02-19 13:00 | 50.35088 | 13.01290 | 36794 ft | 459 kts | 24° |
| 2026-02-19 13:01 | 50.40756 | 13.05952 | 36807 ft | 461 kts | 24° |
| 2026-02-19 13:01 | 50.46479 | 13.10536 | 36526 ft | 467 kts | 23° |
| 2026-02-19 13:02 | 50.49388 | 13.12845 | 36010 ft | 467 kts | 23° |
| 2026-02-19 13:02 | 50.52276 | 13.15145 | 35509 ft | 464 kts | 24° |
| 2026-02-19 13:02 | 50.54675 | 13.17067 | 35193 ft | 458 kts | 24° |
| 2026-02-19 13:02 | 50.56131 | 13.18236 | 34954 ft | 456 kts | 24° |
| 2026-02-19 13:03 | 50.58944 | 13.20498 | 34553 ft | 452 kts | 24° |
| 2026-02-19 13:03 | 50.61767 | 13.22771 | 34133 ft | 447 kts | 24° |
| 2026-02-19 13:03 | 50.64484 | 13.24960 | 33706 ft | 443 kts | 24° |
| 2026-02-19 13:03 | 50.67214 | 13.27162 | 33208 ft | 438 kts | 24° |
| 2026-02-19 13:04 | 50.69914 | 13.29343 | 32803 ft | 433 kts | 24° |
| 2026-02-19 13:04 | 50.75223 | 13.33638 | 31979 ft | 424 kts | 24° |
| 2026-02-19 13:04 | 50.77833 | 13.35753 | 31565 ft | 420 kts | 24° |
| 2026-02-19 13:05 | 50.80424 | 13.37855 | 31183 ft | 417 kts | 23° |
| 2026-02-19 13:05 | 50.82992 | 13.39942 | 30781 ft | 414 kts | 23° |
| 2026-02-19 13:05 | 50.85544 | 13.42016 | 30394 ft | 411 kts | 23° |
| 2026-02-19 13:05 | 50.88083 | 13.44083 | 30011 ft | 408 kts | 23° |
| 2026-02-19 13:06 | 50.90598 | 13.46134 | 29583 ft | 406 kts | 23° |
| 2026-02-19 13:06 | 50.93127 | 13.48046 | 29164 ft | 399 kts | 16° |
| 2026-02-19 13:06 | 50.95751 | 13.49270 | 28735 ft | 389 kts | 6° |
| 2026-02-19 13:06 | 50.98402 | 13.49967 | 28362 ft | 384 kts | 4° |
| 2026-02-19 13:07 | 51.01028 | 13.50607 | 27965 ft | 380 kts | 4° |
| 2026-02-19 13:07 | 51.03633 | 13.51259 | 27589 ft | 378 kts | 5° |
| 2026-02-19 13:07 | 51.06219 | 13.51938 | 27200 ft | 375 kts | 5° |
| 2026-02-19 13:07 | 51.08778 | 13.52626 | 26813 ft | 372 kts | 5° |
| 2026-02-19 13:08 | 51.11286 | 13.53305 | 26435 ft | 369 kts | 5° |
| 2026-02-19 13:08 | 51.16310 | 13.54665 | 25688 ft | 364 kts | 5° |
| 2026-02-19 13:08 | 51.18793 | 13.55337 | 25306 ft | 361 kts | 5° |
| 2026-02-19 13:09 | 51.21268 | 13.56007 | 24952 ft | 359 kts | 5° |
| 2026-02-19 13:09 | 51.23722 | 13.56672 | 24587 ft | 357 kts | 5° |
| 2026-02-19 13:09 | 51.26168 | 13.57336 | 24238 ft | 355 kts | 5° |
| 2026-02-19 13:09 | 51.28603 | 13.57997 | 23871 ft | 354 kts | 5° |
| 2026-02-19 13:10 | 51.31029 | 13.58657 | 23508 ft | 353 kts | 5° |
| 2026-02-19 13:10 | 51.33442 | 13.59314 | 23095 ft | 351 kts | 5° |
| 2026-02-19 13:10 | 51.35844 | 13.59968 | 22694 ft | 349 kts | 5° |
| 2026-02-19 13:10 | 51.38226 | 13.60619 | 22335 ft | 346 kts | 5° |
| 2026-02-19 13:11 | 51.40589 | 13.61264 | 21975 ft | 343 kts | 5° |
| 2026-02-19 13:11 | 51.42930 | 13.61904 | 21614 ft | 340 kts | 5° |
| 2026-02-19 13:11 | 51.45256 | 13.62541 | 21249 ft | 338 kts | 5° |
| 2026-02-19 13:11 | 51.47571 | 13.63176 | 20887 ft | 336 kts | 5° |
| 2026-02-19 13:12 | 51.49870 | 13.63810 | 20551 ft | 335 kts | 5° |
| 2026-02-19 13:12 | 51.54441 | 13.65071 | 19827 ft | 332 kts | 6° |
| 2026-02-19 13:12 | 51.56716 | 13.65704 | 19469 ft | 331 kts | 6° |
| 2026-02-19 13:13 | 51.59001 | 13.66452 | 18851 ft | 339 kts | 8° |
| 2026-02-19 13:13 | 51.61301 | 13.67296 | 18425 ft | 340 kts | 9° |
| 2026-02-19 13:13 | 51.63601 | 13.68161 | 18029 ft | 339 kts | 9° |
| 2026-02-19 13:13 | 51.65893 | 13.69023 | 17623 ft | 337 kts | 9° |
| 2026-02-19 13:14 | 51.68167 | 13.69872 | 17254 ft | 334 kts | 9° |
| 2026-02-19 13:14 | 51.70425 | 13.70710 | 16896 ft | 331 kts | 10° |
| 2026-02-19 13:14 | 51.72660 | 13.71535 | 16544 ft | 329 kts | 10° |
| 2026-02-19 13:14 | 51.74885 | 13.72355 | 16185 ft | 326 kts | 10° |
| 2026-02-19 13:15 | 51.76345 | 13.72893 | 15944 ft | 325 kts | 10° |
| 2026-02-19 13:15 | 51.78542 | 13.73702 | 15591 ft | 323 kts | 11° |
| 2026-02-19 13:15 | 51.80727 | 13.74508 | 15242 ft | 321 kts | 11° |
| 2026-02-19 13:15 | 51.82894 | 13.75307 | 14891 ft | 318 kts | 11° |
| 2026-02-19 13:16 | 51.85047 | 13.76102 | 14543 ft | 316 kts | 11° |
| 2026-02-19 13:16 | 51.89307 | 13.77617 | 13995 ft | 308 kts | 5° |
| 2026-02-19 13:16 | 51.91352 | 13.77136 | 13974 ft | 295 kts | 335° |
| 2026-02-19 13:17 | 51.93046 | 13.75371 | 13962 ft | 287 kts | 321° |
| 2026-02-19 13:17 | 51.94381 | 13.73026 | 13968 ft | 279 kts | 309° |
| 2026-02-19 13:17 | 51.95532 | 13.70563 | 13946 ft | 268 kts | 308° |
| 2026-02-19 13:17 | 51.96615 | 13.68179 | 13937 ft | 257 kts | 309° |
| 2026-02-19 13:18 | 51.97667 | 13.65872 | 13804 ft | 252 kts | 308° |
| 2026-02-19 13:18 | 51.98716 | 13.63587 | 13470 ft | 254 kts | 308° |
| 2026-02-19 13:18 | 51.99786 | 13.61266 | 13023 ft | 260 kts | 309° |
| 2026-02-19 13:18 | 52.00915 | 13.58826 | 12077 ft | 283 kts | 309° |
| 2026-02-19 13:19 | 52.02124 | 13.56214 | 11499 ft | 293 kts | 309° |
| 2026-02-19 13:19 | 52.03345 | 13.53571 | 11172 ft | 289 kts | 309° |
| 2026-02-19 13:19 | 52.04541 | 13.50980 | 10701 ft | 288 kts | 309° |
| 2026-02-19 13:19 | 52.05747 | 13.48371 | 10400 ft | 287 kts | 310° |
| 2026-02-19 13:20 | 52.06921 | 13.45826 | 10331 ft | 277 kts | 310° |
| 2026-02-19 13:20 | 52.09175 | 13.40939 | 10006 ft | 267 kts | 310° |
| 2026-02-19 13:20 | 52.10288 | 13.38527 | 9719 ft | 267 kts | 310° |
| 2026-02-19 13:21 | 52.11413 | 13.36089 | 9209 ft | 274 kts | 310° |
| 2026-02-19 13:21 | 52.12569 | 13.33580 | 8715 ft | 278 kts | 310° |
| 2026-02-19 13:21 | 52.13705 | 13.31108 | 8351 ft | 272 kts | 310° |
| 2026-02-19 13:21 | 52.14817 | 13.28682 | 8231 ft | 256 kts | 310° |
| 2026-02-19 13:22 | 52.15855 | 13.26416 | 8120 ft | 243 kts | 310° |
| 2026-02-19 13:22 | 52.16841 | 13.24263 | 7979 ft | 232 kts | 310° |
| 2026-02-19 13:22 | 52.17800 | 13.22170 | 7696 ft | 228 kts | 310° |
| 2026-02-19 13:22 | 52.18619 | 13.19978 | 7397 ft | 230 kts | 289° |
| 2026-02-19 13:23 | 52.18580 | 13.17374 | 7023 ft | 236 kts | 253° |
| 2026-02-19 13:23 | 52.17995 | 13.14873 | 6672 ft | 237 kts | 249° |
| 2026-02-19 13:23 | 52.17388 | 13.12410 | 6299 ft | 239 kts | 249° |
| 2026-02-19 13:23 | 52.16766 | 13.09891 | 5893 ft | 240 kts | 250° |
| 2026-02-19 13:24 | 52.16506 | 13.07249 | 5546 ft | 236 kts | 280° |
| 2026-02-19 13:24 | 52.18368 | 13.03505 | 5020 ft | 214 kts | 349° |
| 2026-02-19 13:25 | 52.21179 | 13.03763 | 4480 ft | 199 kts | 32° |
| 2026-02-19 13:25 | 52.22333 | 13.04948 | 4236 ft | 195 kts | 35° |
| 2026-02-19 13:25 | 52.23480 | 13.06117 | 3967 ft | 193 kts | 35° |
| 2026-02-19 13:25 | 52.24618 | 13.07267 | 3700 ft | 192 kts | 35° |
| 2026-02-19 13:26 | 52.25763 | 13.08417 | 3318 ft | 197 kts | 35° |
| 2026-02-19 13:26 | 52.26926 | 13.09572 | 3087 ft | 195 kts | 35° |
| 2026-02-19 13:26 | 52.28046 | 13.10665 | 2967 ft | 179 kts | 34° |
| 2026-02-19 13:26 | 52.29089 | 13.11673 | 2965 ft | 172 kts | 37° |
| 2026-02-19 13:27 | 52.29848 | 13.13080 | 2960 ft | 165 kts | 74° |
| 2026-02-19 13:27 | 52.29895 | 13.14954 | 2963 ft | 170 kts | 94° |
| 2026-02-19 13:27 | 52.29782 | 13.16852 | 2991 ft | 167 kts | 94° |
| 2026-02-19 13:27 | 52.29659 | 13.18762 | 2989 ft | 170 kts | 95° |
| 2026-02-19 13:28 | 52.29529 | 13.20697 | 2982 ft | 172 kts | 95° |
| 2026-02-19 13:28 | 52.29289 | 13.24540 | 2980 ft | 167 kts | 87° |
| 2026-02-19 13:28 | 52.29713 | 13.26218 | 2975 ft | 162 kts | 46° |
| 2026-02-19 13:29 | 52.30748 | 13.26865 | 2983 ft | 168 kts | 2° |
| 2026-02-19 13:29 | 52.31815 | 13.26089 | 3085 ft | 175 kts | 316° |
| 2026-02-19 13:29 | 52.32393 | 13.24278 | 3353 ft | 185 kts | 294° |
| 2026-02-19 13:29 | 52.32878 | 13.22312 | 3554 ft | 187 kts | 295° |
| 2026-02-19 13:30 | 52.33399 | 13.20237 | 4003 ft | 201 kts | 295° |
| 2026-02-19 13:30 | 52.33938 | 13.18088 | 3977 ft | 203 kts | 295° |
| 2026-02-19 13:30 | 52.34464 | 13.15973 | 3972 ft | 199 kts | 295° |
| 2026-02-19 13:30 | 52.34984 | 13.13876 | 3988 ft | 200 kts | 295° |
| 2026-02-19 13:31 | 52.35473 | 13.11723 | 3980 ft | 205 kts | 283° |
| 2026-02-19 13:31 | 52.35335 | 13.09441 | 3972 ft | 204 kts | 243° |
| 2026-02-19 13:31 | 52.34417 | 13.07817 | 3982 ft | 191 kts | 203° |
| 2026-02-19 13:31 | 52.33177 | 13.07520 | 3973 ft | 176 kts | 161° |
| 2026-02-19 13:32 | 52.32059 | 13.08183 | 3987 ft | 175 kts | 155° |
| 2026-02-19 13:32 | 52.29767 | 13.09657 | 3963 ft | 172 kts | 142° |
| 2026-02-19 13:32 | 52.29111 | 13.11112 | 3979 ft | 158 kts | 99° |
| 2026-02-19 13:33 | 52.28978 | 13.12899 | 4005 ft | 162 kts | 95° |
| 2026-02-19 13:33 | 52.28840 | 13.14737 | 4004 ft | 164 kts | 95° |
| 2026-02-19 13:33 | 52.28698 | 13.16595 | 3984 ft | 163 kts | 95° |
| 2026-02-19 13:33 | 52.28561 | 13.18415 | 3987 ft | 161 kts | 92° |
| 2026-02-19 13:34 | 52.28712 | 13.20192 | 3990 ft | 158 kts | 68° |
| 2026-02-19 13:34 | 52.29178 | 13.21813 | 4017 ft | 158 kts | 68° |
| 2026-02-19 13:34 | 52.29580 | 13.23511 | 3991 ft | 161 kts | 71° |
| 2026-02-19 13:34 | 52.29965 | 13.25224 | 3855 ft | 163 kts | 70° |
| 2026-02-19 13:35 | 52.30363 | 13.26939 | 3658 ft | 156 kts | 69° |
| 2026-02-19 13:35 | 52.30742 | 13.28527 | 3794 ft | 150 kts | 67° |
| 2026-02-19 13:35 | 52.31443 | 13.29835 | 3776 ft | 162 kts | 26° |
| 2026-02-19 13:35 | 52.32583 | 13.29923 | 3780 ft | 174 kts | 344° |
| 2026-02-19 13:36 | 52.33498 | 13.28648 | 3781 ft | 180 kts | 300° |
| 2026-02-19 13:36 | 52.34113 | 13.24578 | 3773 ft | 185 kts | 285° |
| 2026-02-19 13:36 | 52.34390 | 13.22543 | 3887 ft | 183 kts | 285° |
| 2026-02-19 13:37 | 52.34670 | 13.20481 | 3940 ft | 187 kts | 285° |
| 2026-02-19 13:37 | 52.34949 | 13.18413 | 3924 ft | 185 kts | 285° |
| 2026-02-19 13:37 | 52.35225 | 13.16362 | 3929 ft | 184 kts | 285° |
| 2026-02-19 13:37 | 52.35501 | 13.14314 | 3931 ft | 185 kts | 285° |
| 2026-02-19 13:38 | 52.35777 | 13.12261 | 3936 ft | 185 kts | 285° |
| 2026-02-19 13:38 | 52.35884 | 13.10160 | 3914 ft | 189 kts | 257° |
| 2026-02-19 13:38 | 52.35223 | 13.08387 | 3934 ft | 182 kts | 216° |
| 2026-02-19 13:38 | 52.34210 | 13.07155 | 3946 ft | 183 kts | 214° |
| 2026-02-19 13:39 | 52.33194 | 13.05884 | 3922 ft | 185 kts | 215° |
| 2026-02-19 13:39 | 52.32174 | 13.04608 | 3940 ft | 185 kts | 214° |
| 2026-02-19 13:39 | 52.31033 | 13.03760 | 3918 ft | 178 kts | 178° |
| 2026-02-19 13:40 | 52.29388 | 13.05841 | 3930 ft | 155 kts | 95° |
| 2026-02-19 13:40 | 52.29126 | 13.09430 | 3927 ft | 161 kts | 95° |
| 2026-02-19 13:40 | 52.28987 | 13.11238 | 3918 ft | 160 kts | 95° |
| 2026-02-19 13:41 | 52.28849 | 13.13028 | 3924 ft | 158 kts | 95° |
| 2026-02-19 13:41 | 52.28713 | 13.14805 | 3922 ft | 157 kts | 95° |
| 2026-02-19 13:41 | 52.28578 | 13.16563 | 3943 ft | 155 kts | 95° |
| 2026-02-19 13:41 | 52.28444 | 13.18312 | 3931 ft | 156 kts | 95° |
| 2026-02-19 13:42 | 52.28333 | 13.20083 | 3833 ft | 161 kts | 87° |
| 2026-02-19 13:42 | 52.28697 | 13.21783 | 3607 ft | 159 kts | 64° |
| 2026-02-19 13:42 | 52.29094 | 13.23466 | 3366 ft | 157 kts | 72° |
| 2026-02-19 13:42 | 52.29455 | 13.25122 | 3139 ft | 153 kts | 71° |
| 2026-02-19 13:43 | 52.29824 | 13.26742 | 2938 ft | 152 kts | 71° |
| 2026-02-19 13:43 | 52.30280 | 13.28257 | 3164 ft | 153 kts | 57° |
| 2026-02-19 13:43 | 52.31115 | 13.29582 | 3454 ft | 187 kts | 38° |
| 2026-02-19 13:43 | 52.32289 | 13.30471 | 3436 ft | 185 kts | 18° |
| 2026-02-19 13:44 | 52.33573 | 13.30623 | 3427 ft | 187 kts | 358° |
| 2026-02-19 13:44 | 52.35924 | 13.28704 | 3573 ft | 199 kts | 317° |
| 2026-02-19 13:44 | 52.36710 | 13.26834 | 3653 ft | 202 kts | 297° |
| 2026-02-19 13:45 | 52.37186 | 13.24669 | 3829 ft | 202 kts | 294° |
| 2026-02-19 13:45 | 52.37723 | 13.22558 | 3977 ft | 202 kts | 295° |
| 2026-02-19 13:45 | 52.38104 | 13.20339 | 3974 ft | 206 kts | 271° |
| 2026-02-19 13:45 | 52.37695 | 13.18123 | 4010 ft | 206 kts | 238° |
| 2026-02-19 13:46 | 52.36913 | 13.16143 | 3997 ft | 207 kts | 235° |
| 2026-02-19 13:46 | 52.36112 | 13.14192 | 3994 ft | 206 kts | 235° |
| 2026-02-19 13:46 | 52.35309 | 13.12248 | 3990 ft | 206 kts | 235° |
| 2026-02-19 13:46 | 52.34504 | 13.10309 | 3982 ft | 206 kts | 235° |
| 2026-02-19 13:47 | 52.33700 | 13.08374 | 3980 ft | 206 kts | 235° |
| 2026-02-19 13:47 | 52.32899 | 13.06471 | 3964 ft | 201 kts | 230° |
| 2026-02-19 13:47 | 52.31788 | 13.05181 | 3979 ft | 197 kts | 191° |
| 2026-02-19 13:47 | 52.30469 | 13.05256 | 3994 ft | 185 kts | 158° |
| 2026-02-19 13:48 | 52.29310 | 13.05910 | 3957 ft | 169 kts | 154° |
| 2026-02-19 13:48 | 52.28213 | 13.08495 | 4007 ft | 144 kts | 93° |
| 2026-02-19 13:48 | 52.28083 | 13.10228 | 4018 ft | 157 kts | 95° |
| 2026-02-19 13:49 | 52.28117 | 13.11948 | 3964 ft | 149 kts | 66° |
| 2026-02-19 13:49 | 52.28578 | 13.13437 | 3985 ft | 146 kts | 69° |
| 2026-02-19 13:49 | 52.28891 | 13.14969 | 3995 ft | 144 kts | 69° |
| 2026-02-19 13:49 | 52.29242 | 13.16462 | 4001 ft | 138 kts | 69° |
| 2026-02-19 13:50 | 52.29579 | 13.17887 | 3992 ft | 132 kts | 69° |
| 2026-02-19 13:50 | 52.29907 | 13.19279 | 3981 ft | 132 kts | 69° |
| 2026-02-19 13:50 | 52.30236 | 13.20682 | 3892 ft | 134 kts | 69° |
| 2026-02-19 13:50 | 52.30562 | 13.22075 | 3769 ft | 128 kts | 69° |
| 2026-02-19 13:51 | 52.30879 | 13.23429 | 3574 ft | 127 kts | 70° |
| 2026-02-19 13:51 | 52.31193 | 13.24773 | 3396 ft | 127 kts | 70° |
| 2026-02-19 13:51 | 52.31507 | 13.26113 | 3212 ft | 125 kts | 70° |
| 2026-02-19 13:51 | 52.31811 | 13.27412 | 3035 ft | 121 kts | 70° |
| 2026-02-19 13:52 | 52.32110 | 13.28687 | 2873 ft | 120 kts | 70° |
| 2026-02-19 13:52 | 52.32700 | 13.31201 | 2533 ft | 117 kts | 71° |
| 2026-02-19 13:52 | 52.32987 | 13.32429 | 2370 ft | 115 kts | 71° |
| 2026-02-19 13:53 | 52.33276 | 13.33658 | 2200 ft | 117 kts | 71° |
| 2026-02-19 13:53 | 52.33569 | 13.34909 | 2031 ft | 119 kts | 70° |
| 2026-02-19 13:53 | 52.33866 | 13.36171 | 1856 ft | 119 kts | 70° |
| 2026-02-19 13:53 | 52.34164 | 13.37438 | 1687 ft | 120 kts | 70° |
| 2026-02-19 13:54 | 52.34463 | 13.38709 | 1518 ft | 120 kts | 70° |
| 2026-02-19 13:54 | 52.34764 | 13.39986 | 1350 ft | 120 kts | 70° |
| 2026-02-19 13:54 | 52.35064 | 13.41265 | 1160 ft | 120 kts | 69° |
| 2026-02-19 13:54 | 52.35364 | 13.42538 | 977 ft | 122 kts | 68° |
| 2026-02-19 13:55 | 52.35664 | 13.43816 | 797 ft | 121 kts | 68° |
| 2026-02-19 13:55 | 52.35968 | 13.45097 | 627 ft | 122 kts | 69° |
| 2026-02-19 13:55 | 52.36274 | 13.46376 | 455 ft | 119 kts | 64° |
| 2026-02-19 13:55 | 52.36591 | 13.47674 | 315 ft | 125 kts | 71° |
| 2026-02-19 13:56 | 52.36890 | 13.48994 | 154 ft | 113 kts | 68° |
| 2026-02-19 13:56 | 52.37270 | 13.50585 | 155 ft | 58 kts | 69° |
| 2026-02-19 13:56 | 52.37399 | 13.51122 | 157 ft | 48 kts | 69° |
| 2026-02-19 13:57 | 52.37517 | 13.51634 | 154 ft | 49 kts | 68° |
| 2026-02-19 13:57 | 52.37633 | 13.52118 | 153 ft | 44 kts | 69° |
| 2026-02-19 13:57 | 52.37740 | 13.52490 | 156 ft | 20 kts | 53° |
| 2026-02-19 13:57 | 52.37819 | 13.52546 | 157 ft | 7 kts | 354° |
| 2026-02-19 13:58 | 52.37866 | 13.52532 | 157 ft | 14 kts | 349° |
| 2026-02-19 13:58 | 52.37910 | 13.52505 | 158 ft | 4 kts | 332° |
| 2026-02-19 13:58 | 52.37933 | 13.52485 | 158 ft | 3 kts | 332° |
| 2026-02-19 13:58 | 52.37968 | 13.52456 | 158 ft | 15 kts | 334° |
| 2026-02-19 13:59 | 52.38110 | 13.52360 | 158 ft | 19 kts | 339° |
| 2026-02-19 13:59 | 52.38163 | 13.52364 | 158 ft | 9 kts | 39° |
| 2026-02-19 13:59 | 52.38211 | 13.52542 | 158 ft | 25 kts | 70° |
| 2026-02-19 13:59 | 52.38229 | 13.52731 | 158 ft | 9 kts | 114° |
| 2026-02-19 14:00 | 52.38125 | 13.52823 | 158 ft | 25 kts | 159° |
| 2026-02-19 14:00 | 52.37998 | 13.52903 | 157 ft | 11 kts | 158° |
| 2026-02-19 14:00 | 52.37864 | 13.52966 | 156 ft | 28 kts | 189° |
| 2026-02-19 14:01 | 52.37765 | 13.52660 | 158 ft | 38 kts | 249° |
| 2026-02-19 14:01 | 52.37667 | 13.52290 | 155 ft | 0 kts | 249° |
| 2026-02-19 14:01 | 52.37641 | 13.52178 | 154 ft | 23 kts | 248° |
| 2026-02-19 14:01 | 52.37548 | 13.51798 | 155 ft | 50 kts | 248° |
| 2026-02-19 14:02 | 52.37430 | 13.51303 | 156 ft | 53 kts | 249° |
| 2026-02-19 14:02 | 52.37325 | 13.50959 | 156 ft | 10 kts | 168° |
| 2026-02-19 14:02 | 52.37294 | 13.51072 | 156 ft | 25 kts | 101° |
| 2026-02-19 14:02 | 52.37239 | 13.51328 | 157 ft | 20 kts | 161° |
| 2026-02-19 14:03 | 52.37173 | 13.51228 | 158 ft | 0 kts | 246° |
| 2026-02-19 14:03 | 52.37172 | 13.51223 | 157 ft | 0 kts | 246° |
| 2026-02-19 14:09 | 52.37150 | 13.51129 | 157 ft | 18 kts | 249° |
| 2026-02-19 14:10 | 52.37085 | 13.50853 | 157 ft | 33 kts | 249° |
| 2026-02-19 14:10 | 52.36994 | 13.50456 | 158 ft | 39 kts | 249° |
| 2026-02-19 14:10 | 52.36886 | 13.50138 | 158 ft | 19 kts | 185° |
| 2026-02-19 14:10 | 52.36817 | 13.50186 | 158 ft | 14 kts | 155° |
| 2026-02-19 14:11 | 52.36761 | 13.50270 | 158 ft | 14 kts | 90° |
| 2026-02-19 14:11 | 52.36783 | 13.50388 | 158 ft | 5 kts | 71° |
| 2026-02-19 14:11 | 52.36801 | 13.50466 | 158 ft | 7 kts | 70° |
| 2026-02-19 14:11 | 52.36811 | 13.50510 | 158 ft | 4 kts | 72° |
| 2026-02-19 14:12 | 52.36796 | 13.50600 | 158 ft | 7 kts | 139° |
| 2026-02-19 14:12 | 52.36759 | 13.50629 | 158 ft | 3 kts | 159° |